Hartwick, New York
Current Conditions -  °F | °C
As of 11:55 PM on Saturday 22 Nov 2014 (Local Time) from KNY0 Reporting Station
Overcast Overcast  
Wind Chill: 32°   Ceiling: 2400
Heat Index: 32°   Visibility: 5mi
Dew Point: 31°   Wind: 3mph
Humidity: 96%   Direction: 220°SW
Pressure: 30.04"   Gusts: NA
Location:  42.66°N, 75.05°W
Report Text: KNY0 230455Z AUTO 22003KT 5SM OVC024 00/00 A3004 RMK AO2 T00001005
Loading
Personal Weather Stations






























Interactive Weather Map New forecast layout! Learn more

10-Day Weather Forecast

Advertisements
Track Severe Weather on mobile